createdAt,value
2023-03-22T00:00:26.128Z,29.91
2023-03-22T00:04:26.107Z,29.93
2023-03-22T00:08:26.055Z,29.87
2023-03-22T00:12:26.038Z,29.90
2023-03-22T00:16:26.059Z,29.91
2023-03-22T00:20:26.024Z,29.91
2023-03-22T00:24:25.940Z,29.84
2023-03-22T00:28:25.857Z,29.86
2023-03-22T00:32:25.849Z,29.88
2023-03-22T00:36:25.911Z,29.83
2023-03-22T00:40:25.892Z,29.82
2023-03-22T00:44:25.821Z,29.85
2023-03-22T00:48:25.883Z,29.80
2023-03-22T00:52:25.772Z,29.80
2023-03-22T00:56:25.773Z,29.83
2023-03-22T01:00:25.688Z,29.80
2023-03-22T01:04:25.637Z,29.83
2023-03-22T01:08:25.638Z,29.82
2023-03-22T01:12:25.571Z,29.76
2023-03-22T01:16:25.575Z,29.82
2023-03-22T01:20:25.508Z,29.77
2023-03-22T01:24:25.490Z,29.76
2023-03-22T01:28:27.189Z,29.74
2023-03-22T01:32:25.796Z,29.71
2023-03-22T01:36:25.876Z,29.75
2023-03-22T01:40:26.030Z,29.75
2023-03-22T01:44:25.998Z,29.71
2023-03-22T01:48:26.002Z,29.72
2023-03-22T01:52:25.955Z,29.77
2023-03-22T01:56:25.908Z,29.74
2023-03-22T02:00:25.890Z,29.71
2023-03-22T02:04:25.813Z,29.70
2023-03-22T02:08:25.802Z,29.72
2023-03-22T02:12:25.769Z,29.71
2023-03-22T02:16:25.710Z,29.69
2023-03-22T02:20:25.693Z,29.67
2023-03-22T02:24:25.668Z,29.72
2023-03-22T02:28:25.629Z,29.69
2023-03-22T02:32:25.610Z,29.69
2023-03-22T02:36:25.552Z,29.63
2023-03-22T02:40:25.522Z,29.69
2023-03-22T02:44:25.515Z,29.69
2023-03-22T02:48:25.558Z,29.63
2023-03-22T02:52:25.415Z,29.63
2023-03-22T02:56:25.360Z,29.64
2023-03-22T03:00:25.337Z,29.65
2023-03-22T03:04:25.302Z,29.60
2023-03-22T03:08:25.283Z,29.63
2023-03-22T03:12:25.262Z,29.63
2023-03-22T03:17:57.050Z,29.64
2023-03-22T03:21:57.029Z,29.61
2023-03-22T03:25:57.031Z,29.62
2023-03-22T03:29:56.948Z,29.64
2023-03-22T03:33:56.929Z,29.58
2023-03-22T03:37:56.869Z,29.56
2023-03-22T03:41:56.905Z,29.58
2023-03-22T03:45:56.984Z,29.61
2023-03-22T03:49:56.792Z,29.63
2023-03-22T03:53:56.765Z,29.62
2023-03-22T03:57:56.717Z,29.56
2023-03-22T04:01:56.694Z,29.59
2023-03-22T04:05:56.617Z,29.53
2023-03-22T04:09:56.576Z,29.59
2023-03-22T04:13:56.581Z,29.53
2023-03-22T04:17:56.514Z,29.56
2023-03-22T04:21:56.612Z,29.56
2023-03-22T04:25:56.701Z,29.52
2023-03-22T04:29:56.801Z,29.55
2023-03-22T04:33:56.865Z,29.57
2023-03-22T04:37:56.970Z,29.54
2023-03-22T04:41:57.036Z,29.53
2023-03-22T04:45:57.195Z,29.51
2023-03-22T04:49:57.241Z,29.53
2023-03-22T04:53:57.338Z,29.54
2023-03-22T04:57:57.429Z,29.53
2023-03-22T05:01:57.549Z,29.55
2023-03-22T05:05:57.610Z,29.54
2023-03-22T05:09:57.670Z,29.54
2023-03-22T05:13:57.800Z,29.56
2023-03-22T05:17:57.879Z,29.49
2023-03-22T05:21:58.240Z,29.53
2023-03-22T05:25:58.150Z,29.55
2023-03-22T05:29:58.326Z,29.52
2023-03-22T05:33:58.404Z,29.58
2023-03-22T05:37:58.543Z,29.51
2023-03-22T05:41:58.677Z,29.42
2023-03-22T05:45:58.833Z,29.39
2023-03-22T05:49:58.941Z,29.46
2023-03-22T05:53:59.077Z,29.42
2023-03-22T05:57:59.223Z,29.43
2023-03-22T06:01:59.457Z,29.41
2023-03-22T06:05:59.515Z,29.38
2023-03-22T06:09:59.691Z,29.37
2023-03-22T06:13:59.818Z,29.35
2023-03-22T06:17:59.995Z,29.34
2023-03-22T06:22:00.139Z,29.35
2023-03-22T06:26:00.285Z,29.35
2023-03-22T06:30:00.475Z,29.35
2023-03-22T06:34:00.611Z,29.35
2023-03-22T06:38:00.870Z,29.28
2023-03-22T06:42:01.374Z,29.54
2023-03-22T06:46:01.063Z,29.85
2023-03-22T06:50:01.398Z,30.56
2023-03-22T06:54:01.363Z,30.95
2023-03-22T06:58:01.396Z,32.03
2023-03-22T07:02:00.967Z,32.85
2023-03-22T07:06:00.946Z,33.53
2023-03-22T07:10:01.368Z,34.36
2023-03-22T07:14:00.858Z,34.51
2023-03-22T07:18:00.802Z,34.90
2023-03-22T07:22:00.803Z,35.19
2023-03-22T07:26:00.879Z,35.61
2023-03-22T07:30:00.712Z,35.98
2023-03-22T07:34:00.882Z,36.16
2023-03-22T07:38:00.636Z,36.58
2023-03-22T07:42:00.886Z,36.82
2023-03-22T07:46:00.897Z,36.83
2023-03-22T07:50:00.917Z,36.10
2023-03-22T07:54:00.712Z,35.51
2023-03-22T07:58:00.764Z,33.97
2023-03-22T08:02:01.013Z,31.95
2023-03-22T08:06:01.427Z,32.59
2023-03-22T08:10:01.108Z,31.67
2023-03-22T08:14:01.116Z,31.28
2023-03-22T08:18:01.444Z,30.53
2023-03-22T08:22:01.040Z,29.65
2023-03-22T08:26:00.962Z,29.99
2023-03-22T08:30:00.941Z,29.31
2023-03-22T08:34:00.921Z,28.76
2023-03-22T08:38:00.934Z,30.06
2023-03-22T08:42:00.937Z,30.57
2023-03-22T08:46:00.953Z,31.67
2023-03-22T08:50:00.756Z,31.58
2023-03-22T08:54:00.949Z,31.44
2023-03-22T08:58:00.909Z,31.30
2023-03-22T09:02:00.773Z,31.22
2023-03-22T09:06:00.607Z,31.27
2023-03-22T09:10:00.768Z,31.13
2023-03-22T09:14:00.947Z,31.26
2023-03-22T09:18:01.068Z,31.27
2023-03-22T09:22:01.164Z,31.30
2023-03-22T09:26:01.358Z,31.28
2023-03-22T09:30:01.936Z,31.30
2023-03-22T09:34:01.590Z,31.24
2023-03-22T09:38:01.950Z,31.16
2023-03-22T09:42:01.905Z,31.24
2023-03-22T09:46:02.465Z,31.91
2023-03-22T09:50:02.460Z,32.80
2023-03-22T09:54:02.420Z,32.38
2023-03-22T09:58:02.233Z,32.40
2023-03-22T10:02:02.529Z,32.26
2023-03-22T10:06:02.411Z,32.54
2023-03-22T10:10:02.477Z,32.67
2023-03-22T10:14:02.549Z,32.84
2023-03-22T10:18:02.965Z,32.94
2023-03-22T10:22:02.704Z,33.13
2023-03-22T10:26:02.773Z,33.16
2023-03-22T10:30:03.533Z,33.35
2023-03-22T10:34:02.916Z,33.41
2023-03-22T10:38:02.959Z,33.58
2023-03-22T10:42:03.472Z,33.64
2023-03-22T10:46:03.484Z,33.87
2023-03-22T10:50:03.452Z,34.23
2023-03-22T10:54:03.102Z,33.98
2023-03-22T10:58:03.470Z,33.75
2023-03-22T11:02:03.208Z,33.09
2023-03-22T11:06:03.100Z,33.02
2023-03-22T11:10:03.127Z,32.97
2023-03-22T11:14:03.207Z,32.70
2023-03-22T11:18:03.416Z,32.93
2023-03-22T11:22:03.370Z,33.59
2023-03-22T11:26:03.304Z,33.59
2023-03-22T11:30:03.289Z,33.87
2023-03-22T11:34:03.274Z,34.22
2023-03-22T11:38:03.456Z,33.68
2023-03-22T11:42:03.470Z,32.25
2023-03-22T11:46:03.238Z,32.25
2023-03-22T11:50:03.483Z,32.23
2023-03-22T11:54:03.130Z,32.96
2023-03-22T11:58:03.066Z,33.87
2023-03-22T12:02:04.005Z,34.73
2023-03-22T12:06:03.364Z,35.18
2023-03-22T12:10:03.427Z,35.73
2023-03-22T12:14:03.473Z,36.33
2023-03-22T12:18:04.933Z,36.79
2023-03-22T12:22:03.546Z,37.39
2023-03-22T12:26:03.567Z,37.68
2023-03-22T12:30:03.983Z,37.81
2023-03-22T12:34:04.027Z,37.30
2023-03-22T12:38:04.085Z,36.71
2023-03-22T12:42:04.163Z,36.39
2023-03-22T12:46:04.160Z,36.01
2023-03-22T12:50:04.143Z,35.44
2023-03-22T12:54:04.166Z,34.82
2023-03-22T12:58:04.159Z,34.52
2023-03-22T13:02:04.171Z,34.32
2023-03-22T13:06:04.155Z,34.13
2023-03-22T13:10:04.129Z,34.01
2023-03-22T13:14:04.116Z,33.96
2023-03-22T13:18:04.219Z,33.96
2023-03-22T13:22:04.302Z,33.80
2023-03-22T13:26:04.259Z,33.47
2023-03-22T13:30:04.217Z,32.96
2023-03-22T13:34:04.208Z,32.47
2023-03-22T13:38:04.139Z,32.03
2023-03-22T13:42:04.129Z,31.54
2023-03-22T13:46:04.092Z,31.43
2023-03-22T13:50:06.109Z,30.64
2023-03-22T13:54:03.985Z,30.24
2023-03-22T13:58:03.936Z,29.80
2023-03-22T14:02:03.960Z,29.49
2023-03-22T14:06:03.869Z,29.29
2023-03-22T14:10:03.863Z,29.10
2023-03-22T14:14:03.810Z,29.09
2023-03-22T14:18:03.855Z,29.11
